sensor_id;sensor_type;location;lat;lon;timestamp;temperature;humidity
24436;DHT22;12616;52.470;13.436;2023-02-15T00:01:06;4.30;1.00
24436;DHT22;12616;52.470;13.436;2023-02-15T00:03:34;4.10;1.00
24436;DHT22;12616;52.470;13.436;2023-02-15T00:06:00;3.70;1.00
24436;DHT22;12616;52.470;13.436;2023-02-15T00:08:27;4.00;1.00
24436;DHT22;12616;52.470;13.436;2023-02-15T00:11:03;3.90;1.00
24436;DHT22;12616;52.470;13.436;2023-02-15T00:13:30;4.40;1.00
24436;DHT22;12616;52.470;13.436;2023-02-15T00:16:00;4.20;1.00
24436;DHT22;12616;52.470;13.436;2023-02-15T00:18:29;3.70;1.00
24436;DHT22;12616;52.470;13.436;2023-02-15T00:20:55;4.30;12.40
24436;DHT22;12616;52.470;13.436;2023-02-15T00:23:22;4.40;28.80
24436;DHT22;12616;52.470;13.436;2023-02-15T00:25:49;3.80;1.00
24436;DHT22;12616;52.470;13.436;2023-02-15T00:28:16;4.10;17.20
24436;DHT22;12616;52.470;13.436;2023-02-15T00:30:43;3.70;73.50
24436;DHT22;12616;52.470;13.436;2023-02-15T00:33:10;4.00;1.00
24436;DHT22;12616;52.470;13.436;2023-02-15T00:35:38;3.60;1.00
24436;DHT22;12616;52.470;13.436;2023-02-15T00:38:05;3.80;99.90
24436;DHT22;12616;52.470;13.436;2023-02-15T00:40:31;3.60;99.90
24436;DHT22;12616;52.470;13.436;2023-02-15T00:42:58;3.30;99.90
24436;DHT22;12616;52.470;13.436;2023-02-15T00:45:26;3.50;99.90
24436;DHT22;12616;52.470;13.436;2023-02-15T00:47:52;3.70;99.90
24436;DHT22;12616;52.470;13.436;2023-02-15T00:50:19;3.70;99.90
24436;DHT22;12616;52.470;13.436;2023-02-15T00:52:47;3.60;99.90
24436;DHT22;12616;52.470;13.436;2023-02-15T00:55:14;3.50;99.90
24436;DHT22;12616;52.470;13.436;2023-02-15T01:00:09;3.10;99.90
24436;DHT22;12616;52.470;13.436;2023-02-15T01:02:36;3.40;99.90
24436;DHT22;12616;52.470;13.436;2023-02-15T01:05:03;3.40;35.70
24436;DHT22;12616;52.470;13.436;2023-02-15T01:07:31;3.50;89.10
24436;DHT22;12616;52.470;13.436;2023-02-15T01:09:59;3.00;99.90
24436;DHT22;12616;52.470;13.436;2023-02-15T01:12:26;2.50;99.90
24436;DHT22;12616;52.470;13.436;2023-02-15T01:14:53;3.40;99.90
24436;DHT22;12616;52.470;13.436;2023-02-15T01:17:20;3.20;99.90
24436;DHT22;12616;52.470;13.436;2023-02-15T01:19:46;3.40;99.90
24436;DHT22;12616;52.470;13.436;2023-02-15T01:22:13;3.20;99.90
24436;DHT22;12616;52.470;13.436;2023-02-15T01:24:40;3.50;99.90
24436;DHT22;12616;52.470;13.436;2023-02-15T01:27:09;2.80;99.90
24436;DHT22;12616;52.470;13.436;2023-02-15T01:29:36;3.50;99.90
24436;DHT22;12616;52.470;13.436;2023-02-15T01:32:03;3.20;99.90
24436;DHT22;12616;52.470;13.436;2023-02-15T01:34:30;3.40;99.90
24436;DHT22;12616;52.470;13.436;2023-02-15T01:36:56;3.50;99.90
24436;DHT22;12616;52.470;13.436;2023-02-15T01:39:23;3.30;99.90
24436;DHT22;12616;52.470;13.436;2023-02-15T01:41:50;3.50;99.90
24436;DHT22;12616;52.470;13.436;2023-02-15T01:47:29;3.10;99.90
24436;DHT22;12616;52.470;13.436;2023-02-15T01:50:03;3.50;99.90
24436;DHT22;12616;52.470;13.436;2023-02-15T01:52:35;3.60;99.90
24436;DHT22;12616;52.470;13.436;2023-02-15T01:55:04;3.20;97.40
24436;DHT22;12616;52.470;13.436;2023-02-15T01:57:32;2.80;99.90
24436;DHT22;12616;52.470;13.436;2023-02-15T02:00:01;3.40;99.90
24436;DHT22;12616;52.470;13.436;2023-02-15T02:02:30;3.20;99.90
24436;DHT22;12616;52.470;13.436;2023-02-15T02:05:00;2.70;99.90
24436;DHT22;12616;52.470;13.436;2023-02-15T02:07:31;3.00;99.90
24436;DHT22;12616;52.470;13.436;2023-02-15T02:09:59;3.30;99.90
24436;DHT22;12616;52.470;13.436;2023-02-15T02:12:27;3.10;99.90
24436;DHT22;12616;52.470;13.436;2023-02-15T02:14:55;3.00;99.90
24436;DHT22;12616;52.470;13.436;2023-02-15T02:17:27;2.20;99.90
24436;DHT22;12616;52.470;13.436;2023-02-15T02:20:26;2.60;99.90
24436;DHT22;12616;52.470;13.436;2023-02-15T02:23:08;3.20;99.90
24436;DHT22;12616;52.470;13.436;2023-02-15T02:35:09;2.50;99.90
24436;DHT22;12616;52.470;13.436;2023-02-15T02:37:46;2.50;99.90
24436;DHT22;12616;52.470;13.436;2023-02-15T02:40:19;2.80;99.90
24436;DHT22;12616;52.470;13.436;2023-02-15T02:42:51;2.20;99.90
24436;DHT22;12616;52.470;13.436;2023-02-15T02:45:25;2.30;99.90
24436;DHT22;12616;52.470;13.436;2023-02-15T02:47:56;2.70;99.90
24436;DHT22;12616;52.470;13.436;2023-02-15T02:50:29;2.60;99.90
24436;DHT22;12616;52.470;13.436;2023-02-15T02:52:57;2.50;99.90
24436;DHT22;12616;52.470;13.436;2023-02-15T02:55:27;2.90;99.90
24436;DHT22;12616;52.470;13.436;2023-02-15T02:58:00;2.40;99.90
24436;DHT22;12616;52.470;13.436;2023-02-15T03:00:32;2.60;99.90
24436;DHT22;12616;52.470;13.436;2023-02-15T03:03:03;4.00;99.90
24436;DHT22;12616;52.470;13.436;2023-02-15T03:05:34;2.50;99.90
24436;DHT22;12616;52.470;13.436;2023-02-15T03:08:04;2.10;99.90
24436;DHT22;12616;52.470;13.436;2023-02-15T03:10:37;2.20;99.90
24436;DHT22;12616;52.470;13.436;2023-02-15T03:13:04;2.30;99.90
24436;DHT22;12616;52.470;13.436;2023-02-15T03:15:33;2.20;99.90
24436;DHT22;12616;52.470;13.436;2023-02-15T03:18:17;2.00;99.90
24436;DHT22;12616;52.470;13.436;2023-02-15T03:20:46;2.30;99.90
24436;DHT22;12616;52.470;13.436;2023-02-15T03:23:17;2.20;99.90
24436;DHT22;12616;52.470;13.436;2023-02-15T03:25:50;1.80;99.90
24436;DHT22;12616;52.470;13.436;2023-02-15T03:28:20;1.70;99.90
24436;DHT22;12616;52.470;13.436;2023-02-15T03:30:53;3.10;99.90
24436;DHT22;12616;52.470;13.436;2023-02-15T03:33:21;1.80;99.90
24436;DHT22;12616;52.470;13.436;2023-02-15T03:35:54;1.20;99.90
24436;DHT22;12616;52.470;13.436;2023-02-15T03:38:29;2.10;99.90
24436;DHT22;12616;52.470;13.436;2023-02-15T03:41:00;2.10;99.90
24436;DHT22;12616;52.470;13.436;2023-02-15T03:43:44;1.90;99.90
24436;DHT22;12616;52.470;13.436;2023-02-15T03:46:15;2.10;99.90
24436;DHT22;12616;52.470;13.436;2023-02-15T03:48:47;1.80;99.90
24436;DHT22;12616;52.470;13.436;2023-02-15T03:51:21;1.90;99.90
24436;DHT22;12616;52.470;13.436;2023-02-15T03:54:04;1.80;99.90
24436;DHT22;12616;52.470;13.436;2023-02-15T03:56:34;1.90;99.90
24436;DHT22;12616;52.470;13.436;2023-02-15T03:59:02;1.60;99.90
24436;DHT22;12616;52.470;13.436;2023-02-15T04:01:55;1.70;99.90
24436;DHT22;12616;52.470;13.436;2023-02-15T04:04:32;1.60;99.90
24436;DHT22;12616;52.470;13.436;2023-02-15T04:07:01;1.40;99.90
24436;DHT22;12616;52.470;13.436;2023-02-15T04:09:28;1.10;99.90
24436;DHT22;12616;52.470;13.436;2023-02-15T04:12:13;1.40;99.90
24436;DHT22;12616;52.470;13.436;2023-02-15T04:14:39;1.40;99.90
24436;DHT22;12616;52.470;13.436;2023-02-15T04:17:24;1.40;99.90
24436;DHT22;12616;52.470;13.436;2023-02-15T04:19:51;1.60;99.90
24436;DHT22;12616;52.470;13.436;2023-02-15T04:22:36;0.90;99.90
24436;DHT22;12616;52.470;13.436;2023-02-15T04:27:50;1.20;99.90
24436;DHT22;12616;52.470;13.436;2023-02-15T04:30:20;1.40;99.90
24436;DHT22;12616;52.470;13.436;2023-02-15T04:32:48;1.20;99.90
24436;DHT22;12616;52.470;13.436;2023-02-15T04:35:15;1.30;99.90
24436;DHT22;12616;52.470;13.436;2023-02-15T04:37:44;0.90;99.90
24436;DHT22;12616;52.470;13.436;2023-02-15T04:40:12;0.90;99.90
24436;DHT22;12616;52.470;13.436;2023-02-15T04:42:39;1.00;99.90
24436;DHT22;12616;52.470;13.436;2023-02-15T04:45:07;1.10;99.90
24436;DHT22;12616;52.470;13.436;2023-02-15T04:47:34;1.20;99.90
24436;DHT22;12616;52.470;13.436;2023-02-15T04:50:01;1.20;99.90
24436;DHT22;12616;52.470;13.436;2023-02-15T04:52:28;1.20;99.90
24436;DHT22;12616;52.470;13.436;2023-02-15T04:54:56;2.00;99.90
24436;DHT22;12616;52.470;13.436;2023-02-15T04:57:23;0.90;99.90
24436;DHT22;12616;52.470;13.436;2023-02-15T04:59:50;0.60;99.90
24436;DHT22;12616;52.470;13.436;2023-02-15T05:02:17;1.20;99.90
24436;DHT22;12616;52.470;13.436;2023-02-15T05:07:11;1.20;99.90
24436;DHT22;12616;52.470;13.436;2023-02-15T05:12:06;0.40;99.90
24436;DHT22;12616;52.470;13.436;2023-02-15T05:19:28;-0.10;99.90
24436;DHT22;12616;52.470;13.436;2023-02-15T05:21:55;0.30;99.90
24436;DHT22;12616;52.470;13.436;2023-02-15T05:24:22;0.50;99.90
24436;DHT22;12616;52.470;13.436;2023-02-15T05:27:10;0.60;99.90
24436;DHT22;12616;52.470;13.436;2023-02-15T05:29:55;0.50;99.90
24436;DHT22;12616;52.470;13.436;2023-02-15T05:34:49;0.80;99.90
24436;DHT22;12616;52.470;13.436;2023-02-15T05:37:16;0.70;99.90
24436;DHT22;12616;52.470;13.436;2023-02-15T05:39:42;0.80;99.90
24436;DHT22;12616;52.470;13.436;2023-02-15T05:42:11;1.20;99.90
24436;DHT22;12616;52.470;13.436;2023-02-15T05:47:04;0.60;99.90
24436;DHT22;12616;52.470;13.436;2023-02-15T05:52:00;0.50;1.00
24436;DHT22;12616;52.470;13.436;2023-02-15T05:54:27;0.20;99.90
24436;DHT22;12616;52.470;13.436;2023-02-15T05:56:54;0.40;1.00
24436;DHT22;12616;52.470;13.436;2023-02-15T05:59:22;0.30;99.90
24436;DHT22;12616;52.470;13.436;2023-02-15T06:01:49;0.40;1.00
24436;DHT22;12616;52.470;13.436;2023-02-15T06:04:16;0.20;99.90
24436;DHT22;12616;52.470;13.436;2023-02-15T06:09:10;-0.10;1.00
24436;DHT22;12616;52.470;13.436;2023-02-15T06:11:38;0.10;1.00
24436;DHT22;12616;52.470;13.436;2023-02-15T06:14:04;0.20;99.90
24436;DHT22;12616;52.470;13.436;2023-02-15T06:16:33;0.40;1.00
24436;DHT22;12616;52.470;13.436;2023-02-15T06:18:59;0.20;1.00
24436;DHT22;12616;52.470;13.436;2023-02-15T06:21:27;0.30;1.00
24436;DHT22;12616;52.470;13.436;2023-02-15T06:26:21;0.60;1.00
24436;DHT22;12616;52.470;13.436;2023-02-15T06:28:48;0.00;1.00
24436;DHT22;12616;52.470;13.436;2023-02-15T06:31:14;-0.10;1.00
24436;DHT22;12616;52.470;13.436;2023-02-15T06:33:43;-0.10;1.00
24436;DHT22;12616;52.470;13.436;2023-02-15T06:36:09;-0.10;99.90
24436;DHT22;12616;52.470;13.436;2023-02-15T06:38:38;0.30;99.90
24436;DHT22;12616;52.470;13.436;2023-02-15T06:41:06;-0.10;1.00
24436;DHT22;12616;52.470;13.436;2023-02-15T06:46:00;0.60;1.00
24436;DHT22;12616;52.470;13.436;2023-02-15T06:48:27;0.60;1.00
24436;DHT22;12616;52.470;13.436;2023-02-15T06:50:55;0.70;1.00
24436;DHT22;12616;52.470;13.436;2023-02-15T06:53:22;0.10;1.00
24436;DHT22;12616;52.470;13.436;2023-02-15T06:55:49;0.60;1.00
24436;DHT22;12616;52.470;13.436;2023-02-15T06:58:16;0.40;1.00
24436;DHT22;12616;52.470;13.436;2023-02-15T07:00:42;0.00;1.00
24436;DHT22;12616;52.470;13.436;2023-02-15T07:03:13;0.40;1.00
24436;DHT22;12616;52.470;13.436;2023-02-15T07:05:41;-0.10;1.00
24436;DHT22;12616;52.470;13.436;2023-02-15T07:08:10;-0.10;1.00
24436;DHT22;12616;52.470;13.436;2023-02-15T07:10:37;0.60;1.00
24436;DHT22;12616;52.470;13.436;2023-02-15T07:13:04;0.00;1.00
24436;DHT22;12616;52.470;13.436;2023-02-15T07:17:57;-0.90;1.00
24436;DHT22;12616;52.470;13.436;2023-02-15T07:20:25;0.00;1.00
24436;DHT22;12616;52.470;13.436;2023-02-15T07:22:52;0.00;1.00
24436;DHT22;12616;52.470;13.436;2023-02-15T07:25:20;0.40;1.00
24436;DHT22;12616;52.470;13.436;2023-02-15T07:30:16;0.60;1.00
24436;DHT22;12616;52.470;13.436;2023-02-15T07:32:43;0.30;1.00
24436;DHT22;12616;52.470;13.436;2023-02-15T07:35:28;0.00;1.00
24436;DHT22;12616;52.470;13.436;2023-02-15T07:40:23;0.40;1.00
24436;DHT22;12616;52.470;13.436;2023-02-15T07:42:50;0.40;1.00
24436;DHT22;12616;52.470;13.436;2023-02-15T07:45:20;0.30;1.00
24436;DHT22;12616;52.470;13.436;2023-02-15T07:47:47;0.50;1.00
24436;DHT22;12616;52.470;13.436;2023-02-15T07:50:14;0.10;1.00
24436;DHT22;12616;52.470;13.436;2023-02-15T07:52:41;0.10;1.00
24436;DHT22;12616;52.470;13.436;2023-02-15T07:55:08;-0.20;1.00
24436;DHT22;12616;52.470;13.436;2023-02-15T07:57:41;0.20;1.00
24436;DHT22;12616;52.470;13.436;2023-02-15T08:00:09;0.00;1.00
24436;DHT22;12616;52.470;13.436;2023-02-15T08:05:05;0.20;1.00
24436;DHT22;12616;52.470;13.436;2023-02-15T08:09:59;0.30;1.00
24436;DHT22;12616;52.470;13.436;2023-02-15T08:14:54;0.60;1.00
24436;DHT22;12616;52.470;13.436;2023-02-15T08:17:21;0.80;1.00
24436;DHT22;12616;52.470;13.436;2023-02-15T08:19:49;0.50;1.00
24436;DHT22;12616;52.470;13.436;2023-02-15T08:22:15;0.90;1.00
24436;DHT22;12616;52.470;13.436;2023-02-15T08:24:42;0.90;1.00
24436;DHT22;12616;52.470;13.436;2023-02-15T08:27:10;1.00;1.00
24436;DHT22;12616;52.470;13.436;2023-02-15T08:32:11;0.50;99.90
24436;DHT22;12616;52.470;13.436;2023-02-15T08:34:39;0.40;1.00
24436;DHT22;12616;52.470;13.436;2023-02-15T08:37:07;0.40;1.00
24436;DHT22;12616;52.470;13.436;2023-02-15T08:42:02;0.70;1.00
24436;DHT22;12616;52.470;13.436;2023-02-15T08:44:29;0.90;1.00
24436;DHT22;12616;52.470;13.436;2023-02-15T08:46:56;0.50;1.00
24436;DHT22;12616;52.470;13.436;2023-02-15T08:49:29;0.90;1.00
24436;DHT22;12616;52.470;13.436;2023-02-15T08:51:56;0.80;1.00
24436;DHT22;12616;52.470;13.436;2023-02-15T08:54:23;0.70;1.00
24436;DHT22;12616;52.470;13.436;2023-02-15T08:56:50;1.00;1.00
24436;DHT22;12616;52.470;13.436;2023-02-15T08:59:19;0.60;1.00
24436;DHT22;12616;52.470;13.436;2023-02-15T09:01:47;1.10;1.00
24436;DHT22;12616;52.470;13.436;2023-02-15T09:04:14;1.30;1.00
24436;DHT22;12616;52.470;13.436;2023-02-15T09:06:44;0.90;1.00
24436;DHT22;12616;52.470;13.436;2023-02-15T09:09:11;1.10;1.00
24436;DHT22;12616;52.470;13.436;2023-02-15T09:11:40;1.20;1.00
24436;DHT22;12616;52.470;13.436;2023-02-15T09:14:08;1.20;1.00
24436;DHT22;12616;52.470;13.436;2023-02-15T09:16:40;1.30;1.00
24436;DHT22;12616;52.470;13.436;2023-02-15T09:19:07;1.10;1.00
24436;DHT22;12616;52.470;13.436;2023-02-15T09:21:36;1.10;99.90
24436;DHT22;12616;52.470;13.436;2023-02-15T09:24:09;1.40;1.00
24436;DHT22;12616;52.470;13.436;2023-02-15T09:26:38;1.30;1.00
24436;DHT22;12616;52.470;13.436;2023-02-15T09:31:36;1.90;1.00
24436;DHT22;12616;52.470;13.436;2023-02-15T09:34:03;1.80;1.00
24436;DHT22;12616;52.470;13.436;2023-02-15T09:36:32;1.90;1.00
24436;DHT22;12616;52.470;13.436;2023-02-15T09:39:03;1.40;1.00
24436;DHT22;12616;52.470;13.436;2023-02-15T09:44:35;2.00;1.00
24436;DHT22;12616;52.470;13.436;2023-02-15T09:47:28;1.70;1.00
24436;DHT22;12616;52.470;13.436;2023-02-15T09:50:06;1.90;1.00
24436;DHT22;12616;52.470;13.436;2023-02-15T09:52:54;1.60;1.00
24436;DHT22;12616;52.470;13.436;2023-02-15T09:55:42;1.60;1.00
24436;DHT22;12616;52.470;13.436;2023-02-15T09:58:19;2.10;1.00
24436;DHT22;12616;52.470;13.436;2023-02-15T10:00:55;1.70;1.00
24436;DHT22;12616;52.470;13.436;2023-02-15T10:03:41;2.10;1.00
24436;DHT22;12616;52.470;13.436;2023-02-15T10:06:29;2.10;1.00
24436;DHT22;12616;52.470;13.436;2023-02-15T10:09:18;2.10;1.00
24436;DHT22;12616;52.470;13.436;2023-02-15T10:11:57;2.90;99.90
24436;DHT22;12616;52.470;13.436;2023-02-15T10:14:49;2.10;99.90
24436;DHT22;12616;52.470;13.436;2023-02-15T10:17:33;2.00;1.00
24436;DHT22;12616;52.470;13.436;2023-02-15T10:20:13;2.20;99.90
24436;DHT22;12616;52.470;13.436;2023-02-15T10:22:56;2.10;1.00
24436;DHT22;12616;52.470;13.436;2023-02-15T10:25:32;2.70;99.90
24436;DHT22;12616;52.470;13.436;2023-02-15T10:28:05;2.40;99.90
24436;DHT22;12616;52.470;13.436;2023-02-15T10:30:41;2.50;99.90
24436;DHT22;12616;52.470;13.436;2023-02-15T10:33:18;3.00;99.90
24436;DHT22;12616;52.470;13.436;2023-02-15T10:35:58;2.30;99.90
24436;DHT22;12616;52.470;13.436;2023-02-15T10:38:35;2.90;99.90
24436;DHT22;12616;52.470;13.436;2023-02-15T10:41:10;2.60;99.90
24436;DHT22;12616;52.470;13.436;2023-02-15T10:46:47;2.70;99.90
24436;DHT22;12616;52.470;13.436;2023-02-15T10:49:30;2.50;1.00
24436;DHT22;12616;52.470;13.436;2023-02-15T10:52:17;2.90;99.90
24436;DHT22;12616;52.470;13.436;2023-02-15T10:54:51;2.90;99.90
24436;DHT22;12616;52.470;13.436;2023-02-15T10:57:33;2.50;99.90
24436;DHT22;12616;52.470;13.436;2023-02-15T11:00:07;2.80;99.90
24436;DHT22;12616;52.470;13.436;2023-02-15T11:02:57;2.90;99.90
24436;DHT22;12616;52.470;13.436;2023-02-15T11:05:35;2.80;99.90
24436;DHT22;12616;52.470;13.436;2023-02-15T11:08:08;2.70;99.90
24436;DHT22;12616;52.470;13.436;2023-02-15T11:10:38;2.60;99.90
24436;DHT22;12616;52.470;13.436;2023-02-15T11:13:10;2.80;99.90
24436;DHT22;12616;52.470;13.436;2023-02-15T11:15:41;3.60;99.90
24436;DHT22;12616;52.470;13.436;2023-02-15T11:18:14;3.30;99.90
24436;DHT22;12616;52.470;13.436;2023-02-15T11:20:49;3.30;99.90
24436;DHT22;12616;52.470;13.436;2023-02-15T11:23:20;3.20;99.90
24436;DHT22;12616;52.470;13.436;2023-02-15T11:25:54;3.10;99.90
24436;DHT22;12616;52.470;13.436;2023-02-15T11:28:26;3.80;99.90
24436;DHT22;12616;52.470;13.436;2023-02-15T11:30:55;3.50;99.90
24436;DHT22;12616;52.470;13.436;2023-02-15T11:33:28;3.70;99.90
24436;DHT22;12616;52.470;13.436;2023-02-15T11:36:00;3.50;99.90
24436;DHT22;12616;52.470;13.436;2023-02-15T11:38:33;3.50;99.90
24436;DHT22;12616;52.470;13.436;2023-02-15T11:41:03;3.50;99.90
24436;DHT22;12616;52.470;13.436;2023-02-15T11:43:35;4.00;99.90
24436;DHT22;12616;52.470;13.436;2023-02-15T11:46:05;4.00;99.90
24436;DHT22;12616;52.470;13.436;2023-02-15T11:48:33;4.20;99.90
24436;DHT22;12616;52.470;13.436;2023-02-15T11:51:01;4.10;99.90
24436;DHT22;12616;52.470;13.436;2023-02-15T11:53:32;3.90;99.90
24436;DHT22;12616;52.470;13.436;2023-02-15T11:56:00;4.60;99.90
24436;DHT22;12616;52.470;13.436;2023-02-15T11:58:33;4.40;8.60
24436;DHT22;12616;52.470;13.436;2023-02-15T12:01:08;4.30;1.00
24436;DHT22;12616;52.470;13.436;2023-02-15T12:03:44;4.20;99.90
24436;DHT22;12616;52.470;13.436;2023-02-15T12:06:18;4.50;99.90
24436;DHT22;12616;52.470;13.436;2023-02-15T12:08:55;5.00;99.90
24436;DHT22;12616;52.470;13.436;2023-02-15T12:11:33;4.90;1.00
24436;DHT22;12616;52.470;13.436;2023-02-15T12:14:03;5.00;11.40
24436;DHT22;12616;52.470;13.436;2023-02-15T12:16:34;5.10;1.00
24436;DHT22;12616;52.470;13.436;2023-02-15T12:21:56;4.90;99.30
24436;DHT22;12616;52.470;13.436;2023-02-15T12:24:27;4.90;40.30
24436;DHT22;12616;52.470;13.436;2023-02-15T12:26:59;5.70;21.10
24436;DHT22;12616;52.470;13.436;2023-02-15T12:29:30;5.70;1.00
24436;DHT22;12616;52.470;13.436;2023-02-15T12:31:58;5.40;1.00
24436;DHT22;12616;52.470;13.436;2023-02-15T12:34:29;5.70;1.00
24436;DHT22;12616;52.470;13.436;2023-02-15T12:37:01;5.70;1.00
24436;DHT22;12616;52.470;13.436;2023-02-15T12:39:34;5.20;1.00
24436;DHT22;12616;52.470;13.436;2023-02-15T12:42:04;5.40;1.00
24436;DHT22;12616;52.470;13.436;2023-02-15T12:44:32;5.30;1.00
24436;DHT22;12616;52.470;13.436;2023-02-15T12:47:02;5.60;1.00
24436;DHT22;12616;52.470;13.436;2023-02-15T12:49:32;6.10;1.00
24436;DHT22;12616;52.470;13.436;2023-02-15T12:52:00;6.10;1.00
24436;DHT22;12616;52.470;13.436;2023-02-15T12:54:38;6.10;1.00
24436;DHT22;12616;52.470;13.436;2023-02-15T12:57:22;6.50;1.00
24436;DHT22;12616;52.470;13.436;2023-02-15T12:59:51;6.40;1.00
24436;DHT22;12616;52.470;13.436;2023-02-15T13:02:26;6.40;1.00
24436;DHT22;12616;52.470;13.436;2023-02-15T13:04:56;5.70;1.00
24436;DHT22;12616;52.470;13.436;2023-02-15T13:07:28;7.10;1.00
24436;DHT22;12616;52.470;13.436;2023-02-15T13:09:57;6.80;99.90
24436;DHT22;12616;52.470;13.436;2023-02-15T13:12:26;6.70;1.00
24436;DHT22;12616;52.470;13.436;2023-02-15T13:14:56;7.10;1.00
24436;DHT22;12616;52.470;13.436;2023-02-15T13:17:27;7.20;99.90
24436;DHT22;12616;52.470;13.436;2023-02-15T13:20:00;7.10;99.90
24436;DHT22;12616;52.470;13.436;2023-02-15T13:22:35;7.00;1.00
24436;DHT22;12616;52.470;13.436;2023-02-15T13:25:11;6.80;99.90
24436;DHT22;12616;52.470;13.436;2023-02-15T13:27:41;7.30;1.00
24436;DHT22;12616;52.470;13.436;2023-02-15T13:30:22;7.00;1.00
24436;DHT22;12616;52.470;13.436;2023-02-15T13:32:53;7.10;1.00
24436;DHT22;12616;52.470;13.436;2023-02-15T13:35:23;7.20;86.90
24436;DHT22;12616;52.470;13.436;2023-02-15T13:40:45;7.50;99.90
24436;DHT22;12616;52.470;13.436;2023-02-15T13:43:23;7.10;61.50
24436;DHT22;12616;52.470;13.436;2023-02-15T13:46:06;7.50;1.00
24436;DHT22;12616;52.470;13.436;2023-02-15T13:48:44;7.70;1.00
24436;DHT22;12616;52.470;13.436;2023-02-15T13:51:21;7.90;34.40
24436;DHT22;12616;52.470;13.436;2023-02-15T13:54:15;7.40;1.00
24436;DHT22;12616;52.470;13.436;2023-02-15T13:56:55;7.70;99.90
24436;DHT22;12616;52.470;13.436;2023-02-15T13:59:46;10.40;99.90
24436;DHT22;12616;52.470;13.436;2023-02-15T14:02:40;7.80;99.90
24436;DHT22;12616;52.470;13.436;2023-02-15T14:05:25;7.70;1.00
24436;DHT22;12616;52.470;13.436;2023-02-15T14:08:06;8.30;99.90
24436;DHT22;12616;52.470;13.436;2023-02-15T14:10:51;8.10;99.90
24436;DHT22;12616;52.470;13.436;2023-02-15T14:13:38;7.70;99.90
24436;DHT22;12616;52.470;13.436;2023-02-15T14:16:15;8.00;1.00
24436;DHT22;12616;52.470;13.436;2023-02-15T14:18:46;8.10;99.90
24436;DHT22;12616;52.470;13.436;2023-02-15T14:21:17;8.10;1.00
24436;DHT22;12616;52.470;13.436;2023-02-15T14:24:01;8.20;99.60
24436;DHT22;12616;52.470;13.436;2023-02-15T14:26:38;8.30;1.00
24436;DHT22;12616;52.470;13.436;2023-02-15T14:29:16;8.60;1.00
24436;DHT22;12616;52.470;13.436;2023-02-15T14:31:47;7.90;99.90
24436;DHT22;12616;52.470;13.436;2023-02-15T14:34:21;8.30;99.90
24436;DHT22;12616;52.470;13.436;2023-02-15T14:36:50;8.60;1.00
24436;DHT22;12616;52.470;13.436;2023-02-15T14:39:29;8.50;1.00
24436;DHT22;12616;52.470;13.436;2023-02-15T14:42:18;8.10;99.90
24436;DHT22;12616;52.470;13.436;2023-02-15T14:44:49;8.20;99.90
24436;DHT22;12616;52.470;13.436;2023-02-15T14:47:22;8.40;99.90
24436;DHT22;12616;52.470;13.436;2023-02-15T14:49:51;8.40;1.00
24436;DHT22;12616;52.470;13.436;2023-02-15T14:52:18;8.20;1.00
24436;DHT22;12616;52.470;13.436;2023-02-15T14:54:59;8.50;1.00
24436;DHT22;12616;52.470;13.436;2023-02-15T14:57:31;8.20;1.00
24436;DHT22;12616;52.470;13.436;2023-02-15T14:59:59;8.10;1.00
24436;DHT22;12616;52.470;13.436;2023-02-15T15:02:42;7.90;1.00
24436;DHT22;12616;52.470;13.436;2023-02-15T15:05:15;8.30;1.00
24436;DHT22;12616;52.470;13.436;2023-02-15T15:07:45;8.50;1.00
24436;DHT22;12616;52.470;13.436;2023-02-15T15:10:37;8.30;99.90
24436;DHT22;12616;52.470;13.436;2023-02-15T15:13:36;8.00;99.90
24436;DHT22;12616;52.470;13.436;2023-02-15T15:16:30;7.90;1.00
24436;DHT22;12616;52.470;13.436;2023-02-15T15:18:58;10.80;1.00
24436;DHT22;12616;52.470;13.436;2023-02-15T15:21:51;8.10;1.00
24436;DHT22;12616;52.470;13.436;2023-02-15T15:24:49;8.20;99.90
24436;DHT22;12616;52.470;13.436;2023-02-15T15:30:49;8.10;1.00
24436;DHT22;12616;52.470;13.436;2023-02-15T15:33:46;8.40;1.00
24436;DHT22;12616;52.470;13.436;2023-02-15T15:39:38;8.00;99.90
24436;DHT22;12616;52.470;13.436;2023-02-15T15:42:12;8.10;1.00
24436;DHT22;12616;52.470;13.436;2023-02-15T15:45:05;7.90;99.90
24436;DHT22;12616;52.470;13.436;2023-02-15T15:47:54;8.00;99.90
24436;DHT22;12616;52.470;13.436;2023-02-15T15:50:25;7.50;99.90
24436;DHT22;12616;52.470;13.436;2023-02-15T15:52:54;7.60;99.90
24436;DHT22;12616;52.470;13.436;2023-02-15T15:55:23;7.60;99.90
24436;DHT22;12616;52.470;13.436;2023-02-15T15:57:54;7.60;99.90
24436;DHT22;12616;52.470;13.436;2023-02-15T16:00:32;7.70;99.90
24436;DHT22;12616;52.470;13.436;2023-02-15T16:03:02;7.90;1.00
24436;DHT22;12616;52.470;13.436;2023-02-15T16:05:35;7.90;1.00
24436;DHT22;12616;52.470;13.436;2023-02-15T16:08:03;7.90;1.00
24436;DHT22;12616;52.470;13.436;2023-02-15T16:10:30;7.70;99.90
24436;DHT22;12616;52.470;13.436;2023-02-15T16:12:59;7.50;1.00
24436;DHT22;12616;52.470;13.436;2023-02-15T16:15:33;7.70;1.00
24436;DHT22;12616;52.470;13.436;2023-02-15T16:18:02;7.10;1.00
24436;DHT22;12616;52.470;13.436;2023-02-15T16:20:31;7.30;1.00
24436;DHT22;12616;52.470;13.436;2023-02-15T16:23:12;7.50;1.00
24436;DHT22;12616;52.470;13.436;2023-02-15T16:25:47;7.40;99.90
24436;DHT22;12616;52.470;13.436;2023-02-15T16:28:16;7.30;1.00
24436;DHT22;12616;52.470;13.436;2023-02-15T16:30:44;7.60;1.00
24436;DHT22;12616;52.470;13.436;2023-02-15T16:33:13;5.70;1.00
24436;DHT22;12616;52.470;13.436;2023-02-15T16:35:53;7.00;46.70
24436;DHT22;12616;52.470;13.436;2023-02-15T16:38:24;7.20;1.00
24436;DHT22;12616;52.470;13.436;2023-02-15T16:40:55;7.40;94.10
24436;DHT22;12616;52.470;13.436;2023-02-15T16:43:28;7.10;1.00
24436;DHT22;12616;52.470;13.436;2023-02-15T16:46:03;7.10;1.00
24436;DHT22;12616;52.470;13.436;2023-02-15T16:48:34;6.40;1.00
24436;DHT22;12616;52.470;13.436;2023-02-15T16:56:02;6.90;1.00
24436;DHT22;12616;52.470;13.436;2023-02-15T16:58:36;6.70;1.00
24436;DHT22;12616;52.470;13.436;2023-02-15T17:01:06;6.90;99.90
24436;DHT22;12616;52.470;13.436;2023-02-15T17:03:36;6.20;1.00
24436;DHT22;12616;52.470;13.436;2023-02-15T17:06:03;6.40;1.00
24436;DHT22;12616;52.470;13.436;2023-02-15T17:08:34;6.30;92.50
24436;DHT22;12616;52.470;13.436;2023-02-15T17:11:11;6.60;99.90
24436;DHT22;12616;52.470;13.436;2023-02-15T17:13:39;6.10;1.00
24436;DHT22;12616;52.470;13.436;2023-02-15T17:16:26;6.30;1.00
24436;DHT22;12616;52.470;13.436;2023-02-15T17:18:55;6.30;13.00
24436;DHT22;12616;52.470;13.436;2023-02-15T17:21:26;6.20;1.00
24436;DHT22;12616;52.470;13.436;2023-02-15T17:23:58;7.30;1.00
24436;DHT22;12616;52.470;13.436;2023-02-15T17:26:27;6.10;1.00
24436;DHT22;12616;52.470;13.436;2023-02-15T17:28:57;6.00;1.00
24436;DHT22;12616;52.470;13.436;2023-02-15T17:31:27;6.10;99.90
24436;DHT22;12616;52.470;13.436;2023-02-15T17:33:58;5.90;99.90
24436;DHT22;12616;52.470;13.436;2023-02-15T17:36:27;6.00;1.00